sensor_id;sensor_type;location;lat;lon;timestamp;temperature;humidity
51476;DHT22;37554;50.362;7.568;2024-02-26T00:01:39;15.40;48.40
51476;DHT22;37554;50.362;7.568;2024-02-26T00:04:05;15.30;48.50
51476;DHT22;37554;50.362;7.568;2024-02-26T00:06:31;15.40;48.50
51476;DHT22;37554;50.362;7.568;2024-02-26T00:08:57;15.40;48.70
51476;DHT22;37554;50.362;7.568;2024-02-26T00:11:22;15.40;48.80
51476;DHT22;37554;50.362;7.568;2024-02-26T00:13:48;15.40;48.90
51476;DHT22;37554;50.362;7.568;2024-02-26T00:16:13;15.40;49.00
51476;DHT22;37554;50.362;7.568;2024-02-26T00:18:39;15.30;49.10
51476;DHT22;37554;50.362;7.568;2024-02-26T00:21:05;15.30;49.20
51476;DHT22;37554;50.362;7.568;2024-02-26T00:23:30;15.30;49.30
51476;DHT22;37554;50.362;7.568;2024-02-26T00:25:56;15.30;49.40
51476;DHT22;37554;50.362;7.568;2024-02-26T00:28:21;15.30;49.50
51476;DHT22;37554;50.362;7.568;2024-02-26T00:30:47;15.30;49.50
51476;DHT22;37554;50.362;7.568;2024-02-26T00:33:16;15.30;49.70
51476;DHT22;37554;50.362;7.568;2024-02-26T00:35:42;15.30;49.80
51476;DHT22;37554;50.362;7.568;2024-02-26T00:38:08;15.30;49.80
51476;DHT22;37554;50.362;7.568;2024-02-26T00:40:33;15.20;49.90
51476;DHT22;37554;50.362;7.568;2024-02-26T00:42:59;15.20;49.90
51476;DHT22;37554;50.362;7.568;2024-02-26T00:45:25;15.20;50.00
51476;DHT22;37554;50.362;7.568;2024-02-26T00:47:50;15.20;50.10
51476;DHT22;37554;50.362;7.568;2024-02-26T00:50:16;15.20;50.20
51476;DHT22;37554;50.362;7.568;2024-02-26T00:52:42;15.20;50.30
51476;DHT22;37554;50.362;7.568;2024-02-26T00:55:08;15.20;50.40
51476;DHT22;37554;50.362;7.568;2024-02-26T00:57:33;15.20;50.40
51476;DHT22;37554;50.362;7.568;2024-02-26T00:59:59;15.20;50.50
51476;DHT22;37554;50.362;7.568;2024-02-26T01:02:26;15.20;50.60
51476;DHT22;37554;50.362;7.568;2024-02-26T01:04:52;15.20;50.70
51476;DHT22;37554;50.362;7.568;2024-02-26T01:07:17;15.20;50.70
51476;DHT22;37554;50.362;7.568;2024-02-26T01:09:43;15.10;50.70
51476;DHT22;37554;50.362;7.568;2024-02-26T01:12:08;15.10;50.80
51476;DHT22;37554;50.362;7.568;2024-02-26T01:14:34;15.10;50.90
51476;DHT22;37554;50.362;7.568;2024-02-26T01:17:00;15.10;50.90
51476;DHT22;37554;50.362;7.568;2024-02-26T01:19:25;15.10;51.00
51476;DHT22;37554;50.362;7.568;2024-02-26T01:21:51;15.10;51.10
51476;DHT22;37554;50.362;7.568;2024-02-26T01:24:16;15.00;51.00
51476;DHT22;37554;50.362;7.568;2024-02-26T01:26:42;15.10;51.10
51476;DHT22;37554;50.362;7.568;2024-02-26T01:29:08;15.10;51.20
51476;DHT22;37554;50.362;7.568;2024-02-26T01:31:34;15.10;51.30
51476;DHT22;37554;50.362;7.568;2024-02-26T01:34:00;15.00;51.30
51476;DHT22;37554;50.362;7.568;2024-02-26T01:36:25;15.00;51.30
51476;DHT22;37554;50.362;7.568;2024-02-26T01:38:51;15.00;51.40
51476;DHT22;37554;50.362;7.568;2024-02-26T01:41:17;15.00;51.40
51476;DHT22;37554;50.362;7.568;2024-02-26T01:43:42;15.00;51.50
51476;DHT22;37554;50.362;7.568;2024-02-26T01:46:14;15.00;51.50
51476;DHT22;37554;50.362;7.568;2024-02-26T01:48:44;15.00;51.60
51476;DHT22;37554;50.362;7.568;2024-02-26T01:51:11;15.00;51.70
51476;DHT22;37554;50.362;7.568;2024-02-26T01:53:37;15.00;51.70
51476;DHT22;37554;50.362;7.568;2024-02-26T01:56:04;14.90;51.70
51476;DHT22;37554;50.362;7.568;2024-02-26T01:58:30;15.00;51.90
51476;DHT22;37554;50.362;7.568;2024-02-26T02:00:57;15.00;51.90
51476;DHT22;37554;50.362;7.568;2024-02-26T02:03:23;15.00;51.90
51476;DHT22;37554;50.362;7.568;2024-02-26T02:05:49;14.90;52.00
51476;DHT22;37554;50.362;7.568;2024-02-26T02:08:15;14.90;52.10
51476;DHT22;37554;50.362;7.568;2024-02-26T02:10:41;14.90;52.10
51476;DHT22;37554;50.362;7.568;2024-02-26T02:13:07;14.90;52.20
51476;DHT22;37554;50.362;7.568;2024-02-26T02:15:33;14.90;52.20
51476;DHT22;37554;50.362;7.568;2024-02-26T02:17:59;14.80;52.20
51476;DHT22;37554;50.362;7.568;2024-02-26T02:20:34;14.90;52.20
51476;DHT22;37554;50.362;7.568;2024-02-26T02:23:00;14.90;52.30
51476;DHT22;37554;50.362;7.568;2024-02-26T02:25:25;14.80;52.20
51476;DHT22;37554;50.362;7.568;2024-02-26T02:27:53;14.80;52.30
51476;DHT22;37554;50.362;7.568;2024-02-26T02:30:21;14.80;52.30
51476;DHT22;37554;50.362;7.568;2024-02-26T02:32:47;14.80;52.30
51476;DHT22;37554;50.362;7.568;2024-02-26T02:35:12;14.80;52.30
51476;DHT22;37554;50.362;7.568;2024-02-26T02:37:38;14.80;52.30
51476;DHT22;37554;50.362;7.568;2024-02-26T02:40:04;14.80;52.30
51476;DHT22;37554;50.362;7.568;2024-02-26T02:42:30;14.80;52.40
51476;DHT22;37554;50.362;7.568;2024-02-26T02:44:56;14.80;52.50
51476;DHT22;37554;50.362;7.568;2024-02-26T02:47:24;14.80;52.50
51476;DHT22;37554;50.362;7.568;2024-02-26T02:49:50;14.80;52.50
51476;DHT22;37554;50.362;7.568;2024-02-26T02:52:15;14.80;52.60
51476;DHT22;37554;50.362;7.568;2024-02-26T02:54:41;14.80;52.60
51476;DHT22;37554;50.362;7.568;2024-02-26T02:57:08;14.70;52.60
51476;DHT22;37554;50.362;7.568;2024-02-26T02:59:35;14.80;53.30
51476;DHT22;37554;50.362;7.568;2024-02-26T03:02:00;14.70;52.70
51476;DHT22;37554;50.362;7.568;2024-02-26T03:04:26;14.70;52.80
51476;DHT22;37554;50.362;7.568;2024-02-26T03:06:51;14.70;52.90
51476;DHT22;37554;50.362;7.568;2024-02-26T03:09:17;14.70;52.90
51476;DHT22;37554;50.362;7.568;2024-02-26T03:11:42;14.70;52.90
51476;DHT22;37554;50.362;7.568;2024-02-26T03:14:08;14.70;53.00
51476;DHT22;37554;50.362;7.568;2024-02-26T03:16:35;14.70;53.00
51476;DHT22;37554;50.362;7.568;2024-02-26T03:19:00;14.70;53.10
51476;DHT22;37554;50.362;7.568;2024-02-26T03:21:27;14.70;53.20
51476;DHT22;37554;50.362;7.568;2024-02-26T03:23:52;14.70;53.30
51476;DHT22;37554;50.362;7.568;2024-02-26T03:26:18;14.70;53.50
51476;DHT22;37554;50.362;7.568;2024-02-26T03:28:44;14.70;53.50
51476;DHT22;37554;50.362;7.568;2024-02-26T03:31:10;14.70;53.60
51476;DHT22;37554;50.362;7.568;2024-02-26T03:33:36;14.60;53.70
51476;DHT22;37554;50.362;7.568;2024-02-26T03:36:01;14.70;53.80
51476;DHT22;37554;50.362;7.568;2024-02-26T03:38:28;14.60;53.90
51476;DHT22;37554;50.362;7.568;2024-02-26T03:40:54;14.60;54.00
51476;DHT22;37554;50.362;7.568;2024-02-26T03:43:19;14.60;54.00
51476;DHT22;37554;50.362;7.568;2024-02-26T03:45:45;14.60;54.10
51476;DHT22;37554;50.362;7.568;2024-02-26T03:48:10;14.60;54.10
51476;DHT22;37554;50.362;7.568;2024-02-26T03:50:36;14.60;54.20
51476;DHT22;37554;50.362;7.568;2024-02-26T03:53:02;14.60;54.30
51476;DHT22;37554;50.362;7.568;2024-02-26T03:55:27;14.60;54.40
51476;DHT22;37554;50.362;7.568;2024-02-26T03:57:53;14.60;54.40
51476;DHT22;37554;50.362;7.568;2024-02-26T04:00:19;14.60;54.50
51476;DHT22;37554;50.362;7.568;2024-02-26T04:02:46;14.60;54.50
51476;DHT22;37554;50.362;7.568;2024-02-26T04:05:12;14.50;54.60
51476;DHT22;37554;50.362;7.568;2024-02-26T04:07:39;14.60;54.70
51476;DHT22;37554;50.362;7.568;2024-02-26T04:10:09;14.60;54.70
51476;DHT22;37554;50.362;7.568;2024-02-26T04:12:35;14.60;54.90
51476;DHT22;37554;50.362;7.568;2024-02-26T04:15:00;14.50;54.90
51476;DHT22;37554;50.362;7.568;2024-02-26T04:17:26;14.50;55.00
51476;DHT22;37554;50.362;7.568;2024-02-26T04:19:51;14.50;55.10
51476;DHT22;37554;50.362;7.568;2024-02-26T04:22:17;14.50;55.10
51476;DHT22;37554;50.362;7.568;2024-02-26T04:24:43;14.50;55.20
51476;DHT22;37554;50.362;7.568;2024-02-26T04:27:08;14.50;55.30
51476;DHT22;37554;50.362;7.568;2024-02-26T04:29:34;14.50;55.30
51476;DHT22;37554;50.362;7.568;2024-02-26T04:31:59;14.50;55.40
51476;DHT22;37554;50.362;7.568;2024-02-26T04:34:25;14.50;55.40
51476;DHT22;37554;50.362;7.568;2024-02-26T04:36:50;14.50;55.40
51476;DHT22;37554;50.362;7.568;2024-02-26T04:39:16;14.50;55.50
51476;DHT22;37554;50.362;7.568;2024-02-26T04:41:42;14.50;55.60
51476;DHT22;37554;50.362;7.568;2024-02-26T04:44:07;14.50;55.70
51476;DHT22;37554;50.362;7.568;2024-02-26T04:46:33;14.50;55.70
51476;DHT22;37554;50.362;7.568;2024-02-26T04:48:58;14.40;55.70
51476;DHT22;37554;50.362;7.568;2024-02-26T04:51:24;14.40;55.80
51476;DHT22;37554;50.362;7.568;2024-02-26T04:53:49;14.40;55.90
51476;DHT22;37554;50.362;7.568;2024-02-26T04:56:15;14.40;55.90
51476;DHT22;37554;50.362;7.568;2024-02-26T04:58:40;14.40;56.00
51476;DHT22;37554;50.362;7.568;2024-02-26T05:01:06;14.40;56.10
51476;DHT22;37554;50.362;7.568;2024-02-26T05:03:32;14.40;56.10
51476;DHT22;37554;50.362;7.568;2024-02-26T05:05:57;14.40;56.10
51476;DHT22;37554;50.362;7.568;2024-02-26T05:08:23;14.40;56.20
51476;DHT22;37554;50.362;7.568;2024-02-26T05:10:49;14.40;56.30
51476;DHT22;37554;50.362;7.568;2024-02-26T05:13:14;14.40;56.30
51476;DHT22;37554;50.362;7.568;2024-02-26T05:15:43;14.40;56.40
51476;DHT22;37554;50.362;7.568;2024-02-26T05:18:09;14.30;56.50
51476;DHT22;37554;50.362;7.568;2024-02-26T05:20:34;14.30;56.60
51476;DHT22;37554;50.362;7.568;2024-02-26T05:23:01;14.30;56.60
51476;DHT22;37554;50.362;7.568;2024-02-26T05:25:27;14.30;56.70
51476;DHT22;37554;50.362;7.568;2024-02-26T05:27:52;14.30;56.80
51476;DHT22;37554;50.362;7.568;2024-02-26T05:30:18;14.30;56.80
51476;DHT22;37554;50.362;7.568;2024-02-26T05:32:43;14.30;56.90
51476;DHT22;37554;50.362;7.568;2024-02-26T05:35:09;14.30;56.90
51476;DHT22;37554;50.362;7.568;2024-02-26T05:37:35;14.30;57.00
51476;DHT22;37554;50.362;7.568;2024-02-26T05:40:00;14.20;56.90
51476;DHT22;37554;50.362;7.568;2024-02-26T05:42:26;14.30;57.10
51476;DHT22;37554;50.362;7.568;2024-02-26T05:44:51;14.30;57.10
51476;DHT22;37554;50.362;7.568;2024-02-26T05:47:17;14.20;57.10
51476;DHT22;37554;50.362;7.568;2024-02-26T05:49:43;14.30;57.10
51476;DHT22;37554;50.362;7.568;2024-02-26T05:52:09;14.30;57.10
51476;DHT22;37554;50.362;7.568;2024-02-26T05:54:34;14.20;57.20
51476;DHT22;37554;50.362;7.568;2024-02-26T05:57:00;14.30;57.30
51476;DHT22;37554;50.362;7.568;2024-02-26T05:59:26;14.20;57.20
51476;DHT22;37554;50.362;7.568;2024-02-26T06:01:51;14.20;57.30
51476;DHT22;37554;50.362;7.568;2024-02-26T06:04:17;14.20;57.40
51476;DHT22;37554;50.362;7.568;2024-02-26T06:06:44;14.20;57.50
51476;DHT22;37554;50.362;7.568;2024-02-26T06:09:11;14.20;57.50
51476;DHT22;37554;50.362;7.568;2024-02-26T06:11:37;14.20;57.50
51476;DHT22;37554;50.362;7.568;2024-02-26T06:14:02;14.20;57.60
51476;DHT22;37554;50.362;7.568;2024-02-26T06:16:28;14.20;57.60
51476;DHT22;37554;50.362;7.568;2024-02-26T06:18:53;14.10;57.60
51476;DHT22;37554;50.362;7.568;2024-02-26T06:21:19;14.20;57.60
51476;DHT22;37554;50.362;7.568;2024-02-26T06:23:45;14.20;57.60
51476;DHT22;37554;50.362;7.568;2024-02-26T06:26:10;14.10;57.60
51476;DHT22;37554;50.362;7.568;2024-02-26T06:28:36;14.10;57.60
51476;DHT22;37554;50.362;7.568;2024-02-26T06:31:02;14.10;57.70
51476;DHT22;37554;50.362;7.568;2024-02-26T06:33:28;14.10;57.70
51476;DHT22;37554;50.362;7.568;2024-02-26T06:35:53;14.10;57.70
51476;DHT22;37554;50.362;7.568;2024-02-26T06:38:19;14.10;57.80
51476;DHT22;37554;50.362;7.568;2024-02-26T06:40:45;14.10;57.80
51476;DHT22;37554;50.362;7.568;2024-02-26T06:43:11;14.10;57.80
51476;DHT22;37554;50.362;7.568;2024-02-26T06:45:36;14.10;57.80
51476;DHT22;37554;50.362;7.568;2024-02-26T06:48:02;14.10;57.90
51476;DHT22;37554;50.362;7.568;2024-02-26T06:50:28;14.10;57.90
51476;DHT22;37554;50.362;7.568;2024-02-26T06:52:53;14.10;57.90
51476;DHT22;37554;50.362;7.568;2024-02-26T06:55:19;13.90;58.20
51476;DHT22;37554;50.362;7.568;2024-02-26T06:57:45;13.70;58.40
51476;DHT22;37554;50.362;7.568;2024-02-26T07:00:11;13.50;58.80
51476;DHT22;37554;50.362;7.568;2024-02-26T07:02:42;13.20;59.20
51476;DHT22;37554;50.362;7.568;2024-02-26T07:05:08;13.10;59.80
51476;DHT22;37554;50.362;7.568;2024-02-26T07:07:34;13.20;60.00
51476;DHT22;37554;50.362;7.568;2024-02-26T07:10:03;13.40;59.90
51476;DHT22;37554;50.362;7.568;2024-02-26T07:12:31;13.60;59.70
51476;DHT22;37554;50.362;7.568;2024-02-26T07:14:56;13.80;59.50
51476;DHT22;37554;50.362;7.568;2024-02-26T07:17:23;13.90;59.30
51476;DHT22;37554;50.362;7.568;2024-02-26T07:19:49;14.00;59.10
51476;DHT22;37554;50.362;7.568;2024-02-26T07:22:15;14.10;59.10
51476;DHT22;37554;50.362;7.568;2024-02-26T07:24:41;14.10;59.10
51476;DHT22;37554;50.362;7.568;2024-02-26T07:27:06;14.10;59.00
51476;DHT22;37554;50.362;7.568;2024-02-26T07:29:32;14.10;59.00
51476;DHT22;37554;50.362;7.568;2024-02-26T07:31:59;14.10;59.00
51476;DHT22;37554;50.362;7.568;2024-02-26T07:34:25;14.20;59.00
51476;DHT22;37554;50.362;7.568;2024-02-26T07:36:55;14.20;59.00
51476;DHT22;37554;50.362;7.568;2024-02-26T07:39:21;14.20;59.00
51476;DHT22;37554;50.362;7.568;2024-02-26T07:41:47;14.20;59.00
51476;DHT22;37554;50.362;7.568;2024-02-26T07:44:15;14.20;58.90
51476;DHT22;37554;50.362;7.568;2024-02-26T07:46:41;14.20;58.90
51476;DHT22;37554;50.362;7.568;2024-02-26T07:49:07;14.20;58.90
51476;DHT22;37554;50.362;7.568;2024-02-26T07:51:33;14.20;59.00
51476;DHT22;37554;50.362;7.568;2024-02-26T07:54:00;14.20;59.00
51476;DHT22;37554;50.362;7.568;2024-02-26T07:56:28;14.20;59.10
51476;DHT22;37554;50.362;7.568;2024-02-26T07:58:56;14.20;59.10
51476;DHT22;37554;50.362;7.568;2024-02-26T08:01:22;14.20;59.10
51476;DHT22;37554;50.362;7.568;2024-02-26T08:03:48;14.30;59.20
51476;DHT22;37554;50.362;7.568;2024-02-26T08:06:14;14.20;59.10
51476;DHT22;37554;50.362;7.568;2024-02-26T08:08:39;14.20;59.10
51476;DHT22;37554;50.362;7.568;2024-02-26T08:11:05;14.30;59.20
51476;DHT22;37554;50.362;7.568;2024-02-26T08:13:30;14.20;59.20
51476;DHT22;37554;50.362;7.568;2024-02-26T08:15:56;14.20;59.20
51476;DHT22;37554;50.362;7.568;2024-02-26T08:18:22;14.20;59.20
51476;DHT22;37554;50.362;7.568;2024-02-26T08:20:47;14.30;59.20
51476;DHT22;37554;50.362;7.568;2024-02-26T08:23:14;14.30;59.20
51476;DHT22;37554;50.362;7.568;2024-02-26T08:25:39;14.30;59.30
51476;DHT22;37554;50.362;7.568;2024-02-26T08:28:05;14.30;59.30
51476;DHT22;37554;50.362;7.568;2024-02-26T08:30:31;14.30;59.30
51476;DHT22;37554;50.362;7.568;2024-02-26T08:32:56;14.30;59.40
51476;DHT22;37554;50.362;7.568;2024-02-26T08:35:22;14.30;59.40
51476;DHT22;37554;50.362;7.568;2024-02-26T08:37:48;14.30;59.40
51476;DHT22;37554;50.362;7.568;2024-02-26T08:40:14;14.30;59.40
51476;DHT22;37554;50.362;7.568;2024-02-26T08:42:40;14.30;59.50
51476;DHT22;37554;50.362;7.568;2024-02-26T08:45:06;14.30;59.50
51476;DHT22;37554;50.362;7.568;2024-02-26T08:47:32;14.30;59.50
51476;DHT22;37554;50.362;7.568;2024-02-26T08:49:58;14.30;59.50
51476;DHT22;37554;50.362;7.568;2024-02-26T08:52:23;14.30;59.60
51476;DHT22;37554;50.362;7.568;2024-02-26T08:54:49;14.30;59.60
51476;DHT22;37554;50.362;7.568;2024-02-26T08:57:15;14.30;59.70
51476;DHT22;37554;50.362;7.568;2024-02-26T08:59:41;14.20;59.70
51476;DHT22;37554;50.362;7.568;2024-02-26T09:02:07;14.30;59.80
51476;DHT22;37554;50.362;7.568;2024-02-26T09:04:34;14.30;59.70
51476;DHT22;37554;50.362;7.568;2024-02-26T09:07:01;14.20;59.70
51476;DHT22;37554;50.362;7.568;2024-02-26T09:09:27;14.20;59.70
51476;DHT22;37554;50.362;7.568;2024-02-26T09:11:53;14.30;59.70
51476;DHT22;37554;50.362;7.568;2024-02-26T09:14:20;14.30;59.90
51476;DHT22;37554;50.362;7.568;2024-02-26T09:16:46;14.30;59.90
51476;DHT22;37554;50.362;7.568;2024-02-26T09:19:14;14.30;59.90
51476;DHT22;37554;50.362;7.568;2024-02-26T09:21:46;14.40;59.90
51476;DHT22;37554;50.362;7.568;2024-02-26T09:24:12;14.40;60.00
51476;DHT22;37554;50.362;7.568;2024-02-26T09:26:38;14.40;59.90
51476;DHT22;37554;50.362;7.568;2024-02-26T09:29:04;14.40;59.90
51476;DHT22;37554;50.362;7.568;2024-02-26T09:31:30;14.40;59.90
51476;DHT22;37554;50.362;7.568;2024-02-26T09:33:56;14.40;59.90
51476;DHT22;37554;50.362;7.568;2024-02-26T09:36:22;14.50;59.90
51476;DHT22;37554;50.362;7.568;2024-02-26T09:38:48;14.50;59.90
51476;DHT22;37554;50.362;7.568;2024-02-26T09:41:17;14.50;59.90
51476;DHT22;37554;50.362;7.568;2024-02-26T09:43:44;14.60;59.90
51476;DHT22;37554;50.362;7.568;2024-02-26T09:46:11;14.70;59.70
51476;DHT22;37554;50.362;7.568;2024-02-26T09:48:37;14.70;59.50
51476;DHT22;37554;50.362;7.568;2024-02-26T09:51:04;14.80;59.40
51476;DHT22;37554;50.362;7.568;2024-02-26T09:53:31;14.90;59.40
51476;DHT22;37554;50.362;7.568;2024-02-26T09:55:58;14.90;59.30
51476;DHT22;37554;50.362;7.568;2024-02-26T09:58:25;15.00;59.40
51476;DHT22;37554;50.362;7.568;2024-02-26T10:00:56;15.00;59.50
51476;DHT22;37554;50.362;7.568;2024-02-26T10:03:26;15.00;59.40
51476;DHT22;37554;50.362;7.568;2024-02-26T10:05:53;15.10;59.30
51476;DHT22;37554;50.362;7.568;2024-02-26T10:08:21;15.10;59.30
51476;DHT22;37554;50.362;7.568;2024-02-26T10:10:47;15.20;59.40
51476;DHT22;37554;50.362;7.568;2024-02-26T10:13:14;15.30;59.30
51476;DHT22;37554;50.362;7.568;2024-02-26T10:15:40;15.40;59.30
51476;DHT22;37554;50.362;7.568;2024-02-26T10:18:06;15.60;59.00
51476;DHT22;37554;50.362;7.568;2024-02-26T10:20:32;15.70;58.70
51476;DHT22;37554;50.362;7.568;2024-02-26T10:22:58;15.70;58.50
51476;DHT22;37554;50.362;7.568;2024-02-26T10:25:24;15.80;58.70
51476;DHT22;37554;50.362;7.568;2024-02-26T10:27:53;15.80;58.70
51476;DHT22;37554;50.362;7.568;2024-02-26T10:30:20;15.90;58.70
51476;DHT22;37554;50.362;7.568;2024-02-26T10:32:47;16.00;58.70
51476;DHT22;37554;50.362;7.568;2024-02-26T10:35:15;16.00;59.30
51476;DHT22;37554;50.362;7.568;2024-02-26T10:37:41;16.00;58.70
51476;DHT22;37554;50.362;7.568;2024-02-26T10:40:10;15.90;58.80
51476;DHT22;37554;50.362;7.568;2024-02-26T10:42:36;15.90;58.90
51476;DHT22;37554;50.362;7.568;2024-02-26T10:45:03;15.80;59.10
51476;DHT22;37554;50.362;7.568;2024-02-26T10:47:29;15.80;59.20
51476;DHT22;37554;50.362;7.568;2024-02-26T10:49:56;15.80;59.20
51476;DHT22;37554;50.362;7.568;2024-02-26T10:52:23;15.80;59.30
51476;DHT22;37554;50.362;7.568;2024-02-26T10:54:56;15.80;59.40
51476;DHT22;37554;50.362;7.568;2024-02-26T10:57:24;15.70;59.40
51476;DHT22;37554;50.362;7.568;2024-02-26T10:59:51;15.70;59.60
51476;DHT22;37554;50.362;7.568;2024-02-26T11:02:17;15.70;59.70
51476;DHT22;37554;50.362;7.568;2024-02-26T11:04:43;15.70;59.80
51476;DHT22;37554;50.362;7.568;2024-02-26T11:07:09;15.70;59.80
51476;DHT22;37554;50.362;7.568;2024-02-26T11:09:36;15.70;59.90
51476;DHT22;37554;50.362;7.568;2024-02-26T11:12:08;15.70;60.00
51476;DHT22;37554;50.362;7.568;2024-02-26T11:14:39;15.60;60.00
51476;DHT22;37554;50.362;7.568;2024-02-26T11:17:07;15.70;60.00
51476;DHT22;37554;50.362;7.568;2024-02-26T11:19:35;15.70;60.00
51476;DHT22;37554;50.362;7.568;2024-02-26T11:22:01;15.70;60.00
51476;DHT22;37554;50.362;7.568;2024-02-26T11:24:28;15.60;60.00
51476;DHT22;37554;50.362;7.568;2024-02-26T11:26:56;15.60;60.00
51476;DHT22;37554;50.362;7.568;2024-02-26T11:29:32;15.60;60.00
51476;DHT22;37554;50.362;7.568;2024-02-26T11:32:00;15.60;60.00
51476;DHT22;37554;50.362;7.568;2024-02-26T11:34:26;15.60;60.00
51476;DHT22;37554;50.362;7.568;2024-02-26T11:36:52;15.60;60.00
51476;DHT22;37554;50.362;7.568;2024-02-26T11:39:19;15.60;60.00
51476;DHT22;37554;50.362;7.568;2024-02-26T11:41:46;15.60;60.00
51476;DHT22;37554;50.362;7.568;2024-02-26T11:44:12;15.60;60.00
51476;DHT22;37554;50.362;7.568;2024-02-26T11:46:42;15.60;59.90
51476;DHT22;37554;50.362;7.568;2024-02-26T11:49:40;15.70;59.90
51476;DHT22;37554;50.362;7.568;2024-02-26T11:52:10;15.70;60.00
51476;DHT22;37554;50.362;7.568;2024-02-26T11:57:27;15.70;59.80
51476;DHT22;37554;50.362;7.568;2024-02-26T12:02:39;15.70;59.80
51476;DHT22;37554;50.362;7.568;2024-02-26T12:05:11;15.70;59.80
51476;DHT22;37554;50.362;7.568;2024-02-26T12:07:40;15.70;59.70
51476;DHT22;37554;50.362;7.568;2024-02-26T12:10:35;15.70;59.90
51476;DHT22;37554;50.362;7.568;2024-02-26T12:15:40;15.60;60.00
51476;DHT22;37554;50.362;7.568;2024-02-26T12:18:07;15.60;60.00
51476;DHT22;37554;50.362;7.568;2024-02-26T12:20:33;15.60;60.10
51476;DHT22;37554;50.362;7.568;2024-02-26T12:23:02;15.60;60.10
51476;DHT22;37554;50.362;7.568;2024-02-26T12:25:29;15.60;60.20
51476;DHT22;37554;50.362;7.568;2024-02-26T12:27:55;15.60;60.10
51476;DHT22;37554;50.362;7.568;2024-02-26T12:30:22;15.60;60.10
51476;DHT22;37554;50.362;7.568;2024-02-26T12:32:49;15.60;60.20
51476;DHT22;37554;50.362;7.568;2024-02-26T12:35:16;15.60;60.20
51476;DHT22;37554;50.362;7.568;2024-02-26T12:37:42;15.60;60.20
51476;DHT22;37554;50.362;7.568;2024-02-26T12:40:10;15.60;60.30
51476;DHT22;37554;50.362;7.568;2024-02-26T12:42:36;15.60;60.30
51476;DHT22;37554;50.362;7.568;2024-02-26T12:45:07;15.60;60.40
51476;DHT22;37554;50.362;7.568;2024-02-26T12:47:43;15.60;60.40
51476;DHT22;37554;50.362;7.568;2024-02-26T12:50:11;15.60;60.40
51476;DHT22;37554;50.362;7.568;2024-02-26T12:52:44;15.60;60.40
51476;DHT22;37554;50.362;7.568;2024-02-26T12:55:11;15.60;60.40
51476;DHT22;37554;50.362;7.568;2024-02-26T12:57:39;15.60;60.40
51476;DHT22;37554;50.362;7.568;2024-02-26T13:00:06;15.60;61.00
51476;DHT22;37554;50.362;7.568;2024-02-26T13:02:35;15.60;60.40
51476;DHT22;37554;50.362;7.568;2024-02-26T13:05:03;15.60;60.30
51476;DHT22;37554;50.362;7.568;2024-02-26T13:07:29;15.60;60.40
51476;DHT22;37554;50.362;7.568;2024-02-26T13:09:54;15.60;60.40
51476;DHT22;37554;50.362;7.568;2024-02-26T13:12:20;15.60;60.40
51476;DHT22;37554;50.362;7.568;2024-02-26T13:14:46;15.60;60.40
51476;DHT22;37554;50.362;7.568;2024-02-26T13:17:12;15.50;59.70
51476;DHT22;37554;50.362;7.568;2024-02-26T13:19:48;15.20;59.80
51476;DHT22;37554;50.362;7.568;2024-02-26T13:22:13;14.90;60.10
51476;DHT22;37554;50.362;7.568;2024-02-26T13:24:39;14.70;60.30
51476;DHT22;37554;50.362;7.568;2024-02-26T13:27:05;14.60;60.80
51476;DHT22;37554;50.362;7.568;2024-02-26T13:29:31;14.50;61.10
51476;DHT22;37554;50.362;7.568;2024-02-26T13:32:00;14.40;61.10
51476;DHT22;37554;50.362;7.568;2024-02-26T13:34:29;14.40;61.00
51476;DHT22;37554;50.362;7.568;2024-02-26T13:36:56;14.30;61.00
51476;DHT22;37554;50.362;7.568;2024-02-26T13:39:25;14.30;61.10
51476;DHT22;37554;50.362;7.568;2024-02-26T13:41:52;14.50;61.00
51476;DHT22;37554;50.362;7.568;2024-02-26T13:44:21;14.70;60.70
51476;DHT22;37554;50.362;7.568;2024-02-26T13:46:47;14.80;60.40
51476;DHT22;37554;50.362;7.568;2024-02-26T13:49:13;15.00;60.30
51476;DHT22;37554;50.362;7.568;2024-02-26T13:51:39;15.10;60.10
51476;DHT22;37554;50.362;7.568;2024-02-26T13:54:04;15.20;60.00
51476;DHT22;37554;50.362;7.568;2024-02-26T13:56:31;15.30;60.00
51476;DHT22;37554;50.362;7.568;2024-02-26T13:58:57;15.30;59.90
51476;DHT22;37554;50.362;7.568;2024-02-26T14:01:23;15.40;59.90
51476;DHT22;37554;50.362;7.568;2024-02-26T14:03:49;15.40;59.90
51476;DHT22;37554;50.362;7.568;2024-02-26T14:06:15;15.40;59.90
51476;DHT22;37554;50.362;7.568;2024-02-26T14:08:41;15.40;60.00
51476;DHT22;37554;50.362;7.568;2024-02-26T14:11:06;15.40;60.00
51476;DHT22;37554;50.362;7.568;2024-02-26T14:13:32;15.40;60.00
51476;DHT22;37554;50.362;7.568;2024-02-26T14:15:58;15.40;60.00
51476;DHT22;37554;50.362;7.568;2024-02-26T14:18:23;15.50;60.00
51476;DHT22;37554;50.362;7.568;2024-02-26T14:20:49;15.40;60.00
51476;DHT22;37554;50.362;7.568;2024-02-26T14:23:15;15.50;60.00
51476;DHT22;37554;50.362;7.568;2024-02-26T14:25:41;15.40;60.00
51476;DHT22;37554;50.362;7.568;2024-02-26T14:28:06;15.50;59.90
51476;DHT22;37554;50.362;7.568;2024-02-26T14:30:32;15.50;59.90
51476;DHT22;37554;50.362;7.568;2024-02-26T14:32:58;15.60;59.90
51476;DHT22;37554;50.362;7.568;2024-02-26T14:35:23;15.60;59.90
51476;DHT22;37554;50.362;7.568;2024-02-26T14:37:49;15.60;59.80
51476;DHT22;37554;50.362;7.568;2024-02-26T14:40:16;15.60;59.80
51476;DHT22;37554;50.362;7.568;2024-02-26T14:42:41;15.60;59.80
51476;DHT22;37554;50.362;7.568;2024-02-26T14:45:07;15.60;59.90
51476;DHT22;37554;50.362;7.568;2024-02-26T14:47:37;15.60;59.90
51476;DHT22;37554;50.362;7.568;2024-02-26T14:50:04;15.60;59.90
51476;DHT22;37554;50.362;7.568;2024-02-26T14:52:30;15.60;59.90
51476;DHT22;37554;50.362;7.568;2024-02-26T14:54:55;15.60;60.00
51476;DHT22;37554;50.362;7.568;2024-02-26T14:57:23;15.50;60.00
51476;DHT22;37554;50.362;7.568;2024-02-26T14:59:49;15.50;60.10
51476;DHT22;37554;50.362;7.568;2024-02-26T15:02:16;15.50;60.20
51476;DHT22;37554;50.362;7.568;2024-02-26T15:04:41;15.50;60.30
51476;DHT22;37554;50.362;7.568;2024-02-26T15:07:07;15.50;60.30
51476;DHT22;37554;50.362;7.568;2024-02-26T15:09:33;15.50;60.20
51476;DHT22;37554;50.362;7.568;2024-02-26T15:12:00;15.50;60.10
51476;DHT22;37554;50.362;7.568;2024-02-26T15:14:25;15.60;60.10
51476;DHT22;37554;50.362;7.568;2024-02-26T15:16:52;15.60;60.00
51476;DHT22;37554;50.362;7.568;2024-02-26T15:19:17;15.70;60.00
51476;DHT22;37554;50.362;7.568;2024-02-26T15:21:47;15.70;60.00
51476;DHT22;37554;50.362;7.568;2024-02-26T15:24:13;15.70;60.00
51476;DHT22;37554;50.362;7.568;2024-02-26T15:26:41;15.70;60.00
51476;DHT22;37554;50.362;7.568;2024-02-26T15:29:07;15.70;60.50
51476;DHT22;37554;50.362;7.568;2024-02-26T15:31:36;15.80;60.40
51476;DHT22;37554;50.362;7.568;2024-02-26T15:34:02;15.70;60.90